Time;durP1;ratioP1;P1;durP2;ratioP2;P2;SDS_P1;SDS_P2;PMS_P1;PMS_P2;Temp;Humidity;BMP_temperature;BMP_pressure;BME280_temperature;BME280_humidity;BME280_pressure;Samples;Min_cycle;Max_cycle;Signal;HPM_P1;HPM_P2
2021/04/25 00:00:27;;;;;;;9.98;5.03;;;13.00;52.60;;;;;;5062733;28;27455;-53
2021/04/25 00:03:55;;;;;;;7.50;4.53;;;12.90;52.80;;;;;;5064794;28;27328;-52
2021/04/25 00:07:30;;;;;;;8.25;4.90;;;12.90;53.00;;;;;;5064401;28;27400;-52
2021/04/25 00:11:00;;;;;;;7.05;4.78;;;12.80;52.90;;;;;;5064718;28;27343;-53
2021/04/25 00:14:14;;;;;;;15.85;5.63;;;12.80;53.30;;;;;;5061900;28;27345;-54
2021/04/25 00:17:28;;;;;;;8.27;4.45;;;12.70;53.20;;;;;;5065221;28;27498;-54
2021/04/25 00:20:43;;;;;;;10.73;4.97;;;12.70;53.30;;;;;;5064718;28;27404;-55
2021/04/25 00:23:49;;;;;;;13.27;4.65;;;12.60;53.30;;;;;;5064955;28;27416;-55
2021/04/25 00:27:03;;;;;;;11.20;5.07;;;12.60;53.20;;;;;;5064172;28;27377;-53
2021/04/25 00:30:18;;;;;;;8.68;4.30;;;12.60;53.30;;;;;;5063769;28;27506;-54
2021/04/25 00:33:47;;;;;;;8.50;4.22;;;12.60;53.50;;;;;;5062433;28;27479;-55
2021/04/25 00:36:56;;;;;;;9.05;4.18;;;12.50;53.50;;;;;;5064118;28;28093;-55
2021/04/25 00:39:40;;;;;;;7.95;4.32;;;12.40;53.70;;;;;;5064318;28;27490;-50
2021/04/25 00:42:34;;;;;;;7.43;4.70;;;12.40;53.90;;;;;;5064521;28;27401;-54
2021/04/25 00:45:34;;;;;;;8.82;4.13;;;12.40;53.90;;;;;;5064261;28;27380;-54
2021/04/25 00:48:39;;;;;;;8.95;5.00;;;12.30;53.90;;;;;;5087591;28;27501;-53
2021/04/25 00:52:01;;;;;;;7.65;4.28;;;12.20;53.90;;;;;;5103822;28;27435;-54
2021/04/25 00:55:01;;;;;;;5.28;3.92;;;12.20;54.10;;;;;;5104486;28;27424;-54
2021/04/25 00:58:15;;;;;;;8.60;4.82;;;12.20;54.10;;;;;;5101401;28;27383;-54
2021/04/25 01:01:30;;;;;;;6.97;4.10;;;12.10;54.10;;;;;;5103761;28;27406;-54
2021/04/25 01:04:46;;;;;;;7.75;4.35;;;12.10;54.50;;;;;;5104297;28;27489;-52
2021/04/25 01:08:01;;;;;;;5.22;3.55;;;12.00;54.60;;;;;;5104811;28;27332;-53
2021/04/25 01:11:11;;;;;;;8.13;4.45;;;11.90;54.70;;;;;;5104515;28;27389;-54
2021/04/25 01:14:25;;;;;;;8.70;4.15;;;11.90;54.90;;;;;;5103042;28;27403;-54
2021/04/25 01:17:39;;;;;;;8.15;4.00;;;11.80;55.20;;;;;;5104413;28;27324;-55
2021/04/25 01:20:53;;;;;;;8.60;3.72;;;11.70;55.20;;;;;;5102255;28;27426;-54
2021/04/25 01:24:07;;;;;;;6.15;4.30;;;11.70;55.40;;;;;;5104464;28;27328;-55
2021/04/25 01:27:35;;;;;;;5.55;4.18;;;11.60;55.50;;;;;;5103749;28;27308;-54
2021/04/25 01:30:45;;;;;;;10.05;4.80;;;11.60;55.70;;;;;;5104238;28;27348;-53
2021/04/25 01:33:33;;;;;;;6.80;4.05;;;11.50;55.70;;;;;;5104446;28;27514;-49
2021/04/25 01:36:48;;;;;;;6.65;4.47;;;11.50;55.80;;;;;;5103751;28;27327;-55
2021/04/25 01:40:01;;;;;;;6.78;4.07;;;11.50;55.70;;;;;;5104118;28;27888;-55
2021/04/25 01:43:14;;;;;;;7.88;4.75;;;11.50;55.80;;;;;;5104019;28;27402;-54
2021/04/25 01:46:28;;;;;;;7.95;4.00;;;11.40;56.10;;;;;;5100826;28;27437;-55
2021/04/25 01:49:28;;;;;;;7.22;4.53;;;11.40;55.70;;;;;;5102878;28;27406;-52
2021/04/25 01:52:28;;;;;;;8.10;4.03;;;11.40;55.70;;;;;;5104084;28;27331;-54
2021/04/25 01:55:56;;;;;;;6.43;4.00;;;11.40;55.70;;;;;;5102364;28;27502;-55
2021/04/25 01:59:03;;;;;;;7.05;4.82;;;11.40;56.50;;;;;;5103825;28;27434;-55
2021/04/25 02:02:17;;;;;;;6.55;4.50;;;11.30;55.80;;;;;;5104051;28;27336;-54
2021/04/25 02:05:05;;;;;;;6.82;4.38;;;11.30;55.90;;;;;;5103470;28;27348;-51
2021/04/25 02:08:16;;;;;;;7.10;4.53;;;11.20;55.90;;;;;;5102972;28;27608;-54
2021/04/25 02:11:30;;;;;;;6.82;4.50;;;11.20;56.00;;;;;;5100390;28;27370;-55
2021/04/25 02:15:01;;;;;;;8.10;4.13;;;11.20;56.10;;;;;;5103492;28;27519;-55
2021/04/25 02:18:15;;;;;;;6.43;3.97;;;11.10;56.40;;;;;;5102756;28;27970;-54
2021/04/25 02:21:27;;;;;;;4.95;3.63;;;11.00;56.40;;;;;;5098767;28;27423;-51
2021/04/25 02:24:38;;;;;;;6.47;3.78;;;11.00;56.50;;;;;;5101790;28;27418;-54
2021/04/25 02:27:50;;;;;;;10.90;4.22;;;10.90;56.60;;;;;;5086598;28;27525;-55
2021/04/25 02:31:04;;;;;;;7.72;3.97;;;10.80;56.80;;;;;;5101746;28;27557;-54
2021/04/25 02:34:11;;;;;;;8.05;3.80;;;10.70;56.90;;;;;;5103558;28;27586;-53
2021/04/25 02:37:24;;;;;;;6.43;3.85;;;10.70;57.00;;;;;;5099932;28;26879;-53
2021/04/25 02:40:29;;;;;;;7.10;3.83;;;10.60;57.10;;;;;;5103211;27;27391;-51
2021/04/25 02:43:30;;;;;;;8.40;4.07;;;10.50;57.30;;;;;;5106073;28;27396;-54
2021/04/25 02:46:43;;;;;;;6.47;3.60;;;10.50;57.50;;;;;;5106731;28;27432;-52
2021/04/25 02:49:59;;;;;;;6.97;3.67;;;10.40;57.40;;;;;;5106087;28;27405;-54
2021/04/25 02:53:15;;;;;;;5.88;4.03;;;10.30;57.70;;;;;;5106665;28;27437;-49
2021/04/25 02:56:29;;;;;;;8.50;4.40;;;10.30;57.90;;;;;;5083876;28;27479;-52
2021/04/25 02:59:44;;;;;;;7.75;3.70;;;10.20;58.00;;;;;;5084418;28;27434;-52
2021/04/25 03:02:58;;;;;;;5.03;3.47;;;10.20;58.20;;;;;;5084095;28;27599;-53
2021/04/25 03:06:03;;;;;;;14.50;3.88;;;10.20;58.30;;;;;;5084370;28;27509;-52
2021/04/25 03:09:17;;;;;;;5.10;3.28;;;10.10;58.20;;;;;;5070025;28;27833;-52
2021/04/25 03:12:31;;;;;;;9.25;3.45;;;10.10;58.20;;;;;;5084403;28;27590;-53
2021/04/25 03:15:46;;;;;;;5.40;3.92;;;10.00;58.40;;;;;;5084085;28;27563;-54
2021/04/25 03:19:07;;;;;;;4.78;3.35;;;9.90;58.50;;;;;;5066399;28;27471;-54
2021/04/25 03:22:22;;;;;;;8.73;3.88;;;9.90;58.50;;;;;;5084052;28;27359;-53
2021/04/25 03:25:50;;;;;;;5.70;3.92;;;9.90;58.60;;;;;;5083957;28;27360;-54
2021/04/25 03:29:35;;;;;;;7.00;3.25;;;9.90;58.70;;;;;;5084015;28;27407;-52
2021/04/25 03:32:48;;;;;;;7.65;3.83;;;9.90;58.60;;;;;;5088667;28;27482;-51
2021/04/25 03:35:34;;;;;;;7.75;4.20;;;9.80;58.70;;;;;;5106025;28;27328;-52
2021/04/25 03:39:01;;;;;;;7.35;4.22;;;9.80;58.70;;;;;;5105420;28;27397;-54
2021/04/25 03:42:22;;;;;;;8.15;4.28;;;9.80;58.70;;;;;;5106206;28;27374;-53
2021/04/25 03:45:37;;;;;;;6.75;3.90;;;9.80;59.20;;;;;;5105849;28;27396;-51
2021/04/25 03:49:04;;;;;;;5.78;4.00;;;9.80;58.80;;;;;;5103863;28;27954;-53
2021/04/25 03:52:18;;;;;;;7.40;3.53;;;9.80;58.80;;;;;;5102008;28;27410;-53
2021/04/25 03:55:19;;;;;;;8.63;4.22;;;9.70;58.90;;;;;;5105919;28;27426;-52
2021/04/25 03:58:20;;;;;;;6.72;4.10;;;9.70;59.00;;;;;;5105621;28;27410;-54
2021/04/25 04:01:32;;;;;;;6.75;4.22;;;9.70;59.10;;;;;;5102240;28;27299;-53
2021/04/25 04:04:53;;;;;;;6.65;4.38;;;9.60;59.00;;;;;;5103964;28;27400;-50
2021/04/25 04:08:04;;;;;;;7.32;4.60;;;9.60;59.10;;;;;;5105698;28;27395;-51
2021/04/25 04:10:51;;;;;;;6.47;4.38;;;9.60;59.10;;;;;;5103898;28;27365;-53
2021/04/25 04:13:53;;;;;;;6.68;4.90;;;9.60;59.10;;;;;;5104570;28;27497;-52
2021/04/25 04:17:07;;;;;;;6.80;4.28;;;9.60;59.10;;;;;;5105441;28;27320;-53
2021/04/25 04:20:33;;;;;;;9.70;4.85;;;9.60;59.20;;;;;;5105362;28;27385;-52
2021/04/25 04:23:38;;;;;;;7.78;4.55;;;9.60;59.30;;;;;;5104678;28;27414;-50
2021/04/25 04:26:39;;;;;;;7.40;4.80;;;9.60;59.20;;;;;;5104171;28;27619;-54
2021/04/25 04:29:23;;;;;;;6.53;4.13;;;9.60;59.30;;;;;;5101278;28;27535;-52
2021/04/25 04:32:41;;;;;;;7.20;4.70;;;9.60;59.40;;;;;;5105013;28;27406;-52
2021/04/25 04:35:42;;;;;;;5.75;4.15;;;9.60;59.40;;;;;;5075966;28;27384;-53
2021/04/25 04:38:56;;;;;;;6.72;5.00;;;9.60;59.20;;;;;;5104733;28;27505;-52
2021/04/25 04:42:01;;;;;;;7.40;4.20;;;9.60;59.30;;;;;;5105286;28;27445;-53
2021/04/25 04:45:02;;;;;;;5.82;4.15;;;9.60;59.50;;;;;;5105297;28;27499;-52
2021/04/25 04:47:56;;;;;;;6.55;4.35;;;9.60;59.50;;;;;;5103845;28;27456;-54
2021/04/25 04:51:08;;;;;;;7.68;4.47;;;9.60;59.50;;;;;;5104604;28;28001;-54
2021/04/25 04:54:20;;;;;;;7.47;4.53;;;9.50;59.50;;;;;;5088280;28;27638;-51
2021/04/25 04:57:22;;;;;;;8.52;4.47;;;9.50;59.70;;;;;;5103736;28;27388;-53
2021/04/25 05:00:08;;;;;;;11.75;4.50;;;9.50;59.70;;;;;;5075569;28;27454;-51
2021/04/25 05:03:24;;;;;;;7.43;4.50;;;9.40;59.90;;;;;;5103427;27;27383;-53
2021/04/25 05:06:59;;;;;;;8.05;4.35;;;9.40;60.00;;;;;;5101145;28;27408;-53
2021/04/25 05:10:32;;;;;;;10.27;5.93;;;9.40;60.20;;;;;;5104801;28;27391;-50
2021/04/25 05:13:32;;;;;;;6.90;4.75;;;9.30;60.40;;;;;;5103050;28;27380;-51
2021/04/25 05:16:31;;;;;;;6.57;4.43;;;9.30;60.40;;;;;;5104231;28;27490;-53
2021/04/25 05:19:48;;;;;;;7.05;5.03;;;9.30;60.90;;;;;;5104198;28;27555;-51
2021/04/25 05:23:21;;;;;;;7.18;4.63;;;9.30;60.90;;;;;;5080274;28;27425;-54
2021/04/25 05:26:32;;;;;;;7.05;4.55;;;9.30;61.20;;;;;;5104547;28;27389;-53
2021/04/25 05:29:46;;;;;;;8.77;5.05;;;9.40;61.30;;;;;;5104222;28;27466;-53
2021/04/25 05:32:33;;;;;;;9.85;5.50;;;9.40;61.20;;;;;;5103895;28;27573;-51
2021/04/25 05:35:34;;;;;;;11.95;5.15;;;9.40;61.20;;;;;;5104282;28;27476;-54
2021/04/25 05:38:49;;;;;;;9.18;4.72;;;9.50;61.10;;;;;;5104282;28;27367;-50
2021/04/25 05:42:02;;;;;;;8.23;5.00;;;9.60;60.90;;;;;;5103711;28;27897;-53
2021/04/25 05:45:28;;;;;;;8.65;4.80;;;9.60;61.00;;;;;;5104033;28;27399;-53
2021/04/25 05:48:27;;;;;;;10.18;5.22;;;9.70;60.90;;;;;;5103208;28;27670;-54
2021/04/25 05:51:41;;;;;;;10.40;5.32;;;9.80;61.10;;;;;;5103771;28;27438;-50
2021/04/25 05:54:57;;;;;;;8.00;5.15;;;9.90;61.50;;;;;;5102616;28;27443;-52
2021/04/25 05:58:19;;;;;;;11.48;5.97;;;9.90;61.60;;;;;;5103736;28;27465;-54
2021/04/25 06:01:21;;;;;;;7.25;4.93;;;10.00;61.60;;;;;;5103453;28;27391;-53
2021/04/25 06:04:22;;;;;;;9.57;5.10;;;10.10;61.80;;;;;;5103610;28;27371;-52
2021/04/25 06:07:29;;;;;;;10.85;5.45;;;10.20;62.70;;;;;;5100344;28;27840;-54
2021/04/25 06:10:56;;;;;;;10.00;4.95;;;10.20;61.70;;;;;;5103626;28;27419;-52
2021/04/25 06:14:25;;;;;;;10.63;6.10;;;10.30;60.90;;;;;;5102897;28;27539;-52
2021/04/25 06:18:00;;;;;;;9.55;5.55;;;10.40;60.50;;;;;;5103453;28;27625;-52
2021/04/25 06:21:06;;;;;;;8.50;5.22;;;10.50;60.10;;;;;;5102995;28;27447;-53
2021/04/25 06:24:25;;;;;;;12.45;5.63;;;10.60;59.40;;;;;;5103007;28;27443;-54
2021/04/25 06:28:01;;;;;;;11.32;6.10;;;10.80;60.10;;;;;;5099839;28;27457;-53
2021/04/25 06:31:17;;;;;;;8.65;6.00;;;11.10;58.70;;;;;;5101446;28;27380;-53
2021/04/25 06:34:45;;;;;;;9.50;5.20;;;11.60;57.90;;;;;;5100003;28;27411;-51
2021/04/25 06:37:48;;;;;;;10.90;6.07;;;12.20;57.20;;;;;;5103009;28;27411;-52
2021/04/25 06:41:05;;;;;;;11.95;5.65;;;12.60;56.70;;;;;;5103434;28;27382;-54
2021/04/25 06:44:33;;;;;;;10.02;6.80;;;13.10;55.40;;;;;;5102624;28;27632;-55
2021/04/25 06:47:46;;;;;;;10.10;6.35;;;13.50;54.50;;;;;;5099585;28;27438;-52
2021/04/25 06:51:15;;;;;;;11.07;5.75;;;13.90;54.20;;;;;;5099768;28;27430;-53
2021/04/25 06:55:11;;;;;;;8.80;5.65;;;14.30;53.70;;;;;;5099699;28;27477;-54
2021/04/25 06:58:56;;;;;;;8.23;6.45;;;14.70;52.40;;;;;;5099379;28;27464;-54
2021/04/25 07:02:24;;;;;;;11.88;5.82;;;15.10;51.40;;;;;;5102941;28;27437;-54
2021/04/25 07:05:54;;;;;;;12.27;5.85;;;15.30;51.10;;;;;;5102983;28;27411;-55
2021/04/25 07:09:14;;;;;;;10.13;5.45;;;15.50;50.70;;;;;;5102963;28;27465;-55
2021/04/25 07:12:28;;;;;;;8.60;5.68;;;15.80;50.30;;;;;;5102385;28;27336;-55
2021/04/25 07:16:16;;;;;;;10.27;5.80;;;16.10;50.30;;;;;;5099027;28;27341;-55
2021/04/25 07:19:43;;;;;;;9.48;6.35;;;16.40;49.40;;;;;;5102092;28;27451;-55
2021/04/25 07:23:16;;;;;;;10.02;6.40;;;16.60;48.60;;;;;;5102830;28;27489;-56
2021/04/25 07:26:48;;;;;;;14.75;6.57;;;16.90;48.80;;;;;;5102995;27;27414;-56
2021/04/25 07:29:32;;;;;;;12.20;6.82;;;17.10;48.30;;;;;;5104558;28;27400;-55
2021/04/25 07:33:00;;;;;;;11.20;6.82;;;17.20;47.50;;;;;;5106200;28;27324;-56
2021/04/25 07:36:24;;;;;;;14.02;8.20;;;17.40;47.80;;;;;;5102526;28;27335;-54
2021/04/25 07:39:55;;;;;;;10.77;6.97;;;17.70;48.80;;;;;;5106179;28;27383;-56
2021/04/25 07:43:01;;;;;;;12.25;6.90;;;17.90;46.70;;;;;;5105466;28;27411;-56
2021/04/25 07:46:15;;;;;;;14.02;7.97;;;18.10;46.10;;;;;;5105758;28;27401;-56
2021/04/25 07:49:42;;;;;;;13.80;7.18;;;18.30;46.10;;;;;;5104188;28;27507;-56
2021/04/25 07:52:44;;;;;;;9.07;7.30;;;18.60;45.60;;;;;;5105856;28;27103;-57
2021/04/25 07:56:12;;;;;;;11.98;7.80;;;18.90;46.70;;;;;;5106059;28;27492;-57
2021/04/25 07:59:43;;;;;;;13.35;7.35;;;19.40;47.70;;;;;;5107191;28;27436;-57
2021/04/25 08:02:56;;;;;;;13.05;7.60;;;19.80;45.00;;;;;;5103677;28;27468;-57
2021/04/25 08:05:58;;;;;;;12.60;7.60;;;20.20;43.40;;;;;;5106883;28;27402;-58
2021/04/25 08:08:56;;;;;;;10.77;6.90;;;20.60;43.20;;;;;;5107090;28;27332;-57
2021/04/25 08:12:22;;;;;;;12.88;8.90;;;20.90;42.60;;;;;;5106942;28;27427;-57
2021/04/25 08:15:48;;;;;;;11.70;8.68;;;21.10;42.20;;;;;;5106479;28;27403;-57
2021/04/25 08:19:15;;;;;;;14.50;8.70;;;21.40;40.80;;;;;;5106099;28;27406;-57
2021/04/25 08:23:21;;;;;;;16.70;9.20;;;21.60;41.10;;;;;;5102965;28;27407;-57
2021/04/25 08:27:27;;;;;;;13.73;7.93;;;21.70;40.30;;;;;;5103168;28;27463;-58
2021/04/25 08:30:52;;;;;;;10.15;7.30;;;21.80;42.50;;;;;;5106093;28;27450;-58
2021/04/25 08:34:20;;;;;;;14.95;8.68;;;22.00;41.80;;;;;;5106539;28;27382;-59
2021/04/25 08:38:24;;;;;;;18.13;8.70;;;22.00;39.90;;;;;;5101979;28;28074;-58
2021/04/25 08:41:44;;;;;;;18.85;8.80;;;21.90;39.70;;;;;;5102931;28;27407;-58
2021/04/25 08:45:14;;;;;;;13.07;7.85;;;22.00;39.70;;;;;;5106313;28;27414;-58
2021/04/25 08:48:01;;;;;;;13.55;8.18;;;22.10;41.60;;;;;;5105486;28;27393;-58
2021/04/25 08:50:48;;;;;;;14.88;8.23;;;22.20;40.60;;;;;;5105282;28;27431;-58
2021/04/25 08:53:33;;;;;;;11.93;7.68;;;22.30;40.80;;;;;;5106009;28;27404;-58
2021/04/25 08:56:46;;;;;;;14.75;8.05;;;22.50;42.60;;;;;;5105269;28;27438;-58
2021/04/25 08:59:31;;;;;;;13.57;7.03;;;22.90;44.40;;;;;;5105830;28;27477;-59
2021/04/25 09:02:45;;;;;;;12.93;7.70;;;23.20;42.40;;;;;;5106137;28;27453;-58
2021/04/25 09:06:13;;;;;;;11.30;6.50;;;23.50;42.00;;;;;;5106209;28;27367;-58
2021/04/25 09:09:44;;;;;;;12.50;8.00;;;23.80;42.20;;;;;;5105902;28;27432;-58
2021/04/25 09:12:36;;;;;;;10.15;6.32;;;24.10;40.00;;;;;;5105606;28;27378;-59
2021/04/25 09:15:24;;;;;;;8.50;6.72;;;24.30;39.20;;;;;;5105683;28;27461;-59
2021/04/25 09:18:41;;;;;;;9.80;6.40;;;24.40;39.50;;;;;;5105647;28;27379;-59
2021/04/25 09:21:55;;;;;;;10.95;7.45;;;24.60;39.90;;;;;;5105376;28;27421;-59
2021/04/25 09:25:35;;;;;;;7.88;6.20;;;24.80;38.60;;;;;;5105882;28;27385;-59
2021/04/25 09:28:41;;;;;;;10.27;7.00;;;24.80;38.60;;;;;;5103814;28;27434;-59
2021/04/25 09:31:54;;;;;;;10.23;7.22;;;24.90;37.30;;;;;;5105751;28;27390;-59
2021/04/25 09:35:38;;;;;;;7.55;5.50;;;24.80;37.90;;;;;;5075080;28;27549;-58
2021/04/25 09:39:10;;;;;;;13.32;6.00;;;24.90;38.40;;;;;;5105369;28;27425;-59
2021/04/25 09:42:15;;;;;;;11.20;7.60;;;25.00;38.30;;;;;;5105471;28;27864;-59
2021/04/25 09:45:30;;;;;;;10.50;6.70;;;25.00;36.80;;;;;;5105219;28;27408;-59
2021/04/25 09:48:35;;;;;;;10.25;6.60;;;24.90;36.20;;;;;;5104271;28;27351;-59
2021/04/25 09:51:23;;;;;;;11.93;6.75;;;25.00;36.90;;;;;;5101810;28;27324;-60
2021/04/25 09:54:24;;;;;;;9.77;6.57;;;25.00;35.40;;;;;;5105424;28;27453;-60
2021/04/25 09:57:31;;;;;;;10.43;7.47;;;25.10;38.30;;;;;;5105066;28;27386;-60
2021/04/25 10:00:41;;;;;;;11.07;8.45;;;25.20;35.30;;;;;;5101861;28;27422;-60
2021/04/25 10:04:18;;;;;;;10.13;7.47;;;25.30;35.50;;;;;;5104543;28;27348;-60
2021/04/25 10:07:48;;;;;;;10.07;5.90;;;25.20;33.40;;;;;;5104353;28;27445;-60
2021/04/25 10:10:48;;;;;;;9.23;6.43;;;25.10;36.30;;;;;;5092353;28;27424;-60
2021/04/25 10:13:55;;;;;;;10.35;6.53;;;25.00;34.90;;;;;;5104139;28;27400;-60
2021/04/25 10:17:01;;;;;;;9.70;7.28;;;25.00;35.30;;;;;;5103836;28;27363;-60
2021/04/25 10:20:07;;;;;;;9.95;6.15;;;24.90;36.00;;;;;;5103674;28;27446;-60
2021/04/25 10:23:35;;;;;;;11.25;7.07;;;24.90;37.10;;;;;;5104722;28;27519;-60
2021/04/25 10:27:07;;;;;;;7.85;5.28;;;24.80;35.10;;;;;;5104877;28;27411;-60
2021/04/25 10:30:41;;;;;;;9.90;7.13;;;24.70;38.30;;;;;;5104559;28;27320;-60
2021/04/25 10:34:18;;;;;;;12.77;7.00;;;24.80;40.00;;;;;;5100767;28;27849;-60
2021/04/25 10:37:37;;;;;;;10.40;6.65;;;24.80;37.60;;;;;;5104741;28;27471;-60
2021/04/25 10:40:31;;;;;;;10.75;5.80;;;24.70;37.10;;;;;;5104647;28;27340;-60
2021/04/25 10:43:58;;;;;;;7.40;5.70;;;24.60;38.70;;;;;;5103738;28;27432;-60
2021/04/25 10:46:59;;;;;;;11.00;6.50;;;24.60;41.00;;;;;;5104647;28;27312;-60
2021/04/25 10:50:17;;;;;;;8.98;6.30;;;24.70;38.40;;;;;;5101063;28;27481;-61
2021/04/25 10:53:18;;;;;;;9.25;6.95;;;24.70;38.60;;;;;;5104433;28;27321;-60
2021/04/25 10:56:18;;;;;;;13.00;6.70;;;24.70;38.40;;;;;;5104655;28;27411;-61
2021/04/25 10:59:50;;;;;;;10.38;6.68;;;24.60;37.50;;;;;;5104199;28;27312;-60
2021/04/25 11:03:13;;;;;;;8.57;6.00;;;24.60;37.80;;;;;;5106588;27;27537;-60
2021/04/25 11:06:24;;;;;;;8.05;5.70;;;24.60;38.20;;;;;;5106845;28;27561;-61
2021/04/25 11:09:48;;;;;;;9.40;6.10;;;24.60;41.40;;;;;;5107391;28;27327;-61
2021/04/25 11:13:16;;;;;;;8.60;5.88;;;24.80;41.10;;;;;;5107302;28;27949;-60
2021/04/25 11:16:20;;;;;;;10.18;6.00;;;24.80;38.50;;;;;;5107085;28;27360;-61
2021/04/25 11:20:35;;;;;;;9.10;6.15;;;24.80;37.80;;;;;;5104017;28;27437;-61
2021/04/25 11:24:03;;;;;;;9.32;6.07;;;24.70;37.50;;;;;;5088543;27;27353;-61
2021/04/25 11:27:32;;;;;;;12.73;5.82;;;24.60;40.20;;;;;;5105183;28;27927;-61
2021/04/25 11:30:39;;;;;;;8.98;6.45;;;24.60;38.10;;;;;;5104106;28;27433;-61
2021/04/25 11:33:31;;;;;;;8.38;6.45;;;24.70;38.20;;;;;;5107695;28;27371;-62
2021/04/25 11:36:37;;;;;;;10.35;6.38;;;24.70;36.30;;;;;;5103301;28;27467;-61
2021/04/25 11:39:48;;;;;;;10.23;5.93;;;24.60;37.10;;;;;;5107204;28;27364;-62
2021/04/25 11:42:48;;;;;;;11.50;6.18;;;24.50;37.80;;;;;;5107263;28;27419;-61
2021/04/25 11:46:00;;;;;;;8.05;5.93;;;24.50;41.50;;;;;;5107267;28;27390;-61
2021/04/25 11:49:22;;;;;;;6.97;5.07;;;24.60;40.90;;;;;;5105651;28;27451;-61
2021/04/25 11:52:13;;;;;;;7.07;5.88;;;24.60;42.30;;;;;;5106948;28;27477;-61
2021/04/25 11:55:10;;;;;;;10.10;5.50;;;24.60;41.00;;;;;;5107271;28;27356;-61
2021/04/25 11:58:24;;;;;;;7.30;5.03;;;24.70;41.90;;;;;;5104822;28;27394;-61
2021/04/25 12:01:24;;;;;;;7.97;5.28;;;24.80;41.60;;;;;;5102622;28;27427;-61
2021/04/25 12:04:43;;;;;;;6.60;5.20;;;24.70;37.80;;;;;;5107014;28;27415;-61
2021/04/25 12:08:00;;;;;;;11.80;6.00;;;24.60;39.20;;;;;;5106664;28;27616;-61
2021/04/25 12:11:08;;;;;;;6.97;5.07;;;24.30;40.70;;;;;;5105624;28;27406;-61
2021/04/25 12:14:18;;;;;;;7.65;5.03;;;24.20;41.60;;;;;;5105295;27;27435;-61
2021/04/25 12:17:32;;;;;;;7.32;4.43;;;24.00;43.70;;;;;;5105917;28;27899;-61
2021/04/25 12:20:40;;;;;;;9.63;5.40;;;23.90;42.10;;;;;;5106570;28;27515;-61
2021/04/25 12:23:43;;;;;;;8.40;4.63;;;23.90;40.10;;;;;;5106641;28;27375;-61
2021/04/25 12:26:38;;;;;;;7.93;4.53;;;23.90;44.80;;;;;;5106023;28;27061;-61
2021/04/25 12:29:36;;;;;;;5.85;3.95;;;23.90;44.00;;;;;;5092193;28;27402;-61
2021/04/25 12:32:47;;;;;;;5.97;4.50;;;23.90;46.20;;;;;;5106639;28;27379;-61
2021/04/25 12:35:55;;;;;;;6.22;4.13;;;23.90;43.30;;;;;;5106276;28;27440;-61
2021/04/25 12:39:03;;;;;;;6.55;3.88;;;24.00;43.90;;;;;;5105003;28;27375;-61
2021/04/25 12:42:21;;;;;;;5.68;4.00;;;24.00;45.10;;;;;;5104641;28;28116;-61
2021/04/25 12:45:26;;;;;;;6.55;3.80;;;24.00;45.80;;;;;;5106110;28;27492;-61
2021/04/25 12:48:48;;;;;;;9.18;4.00;;;24.00;43.20;;;;;;5105087;28;27393;-61
2021/04/25 12:52:16;;;;;;;5.25;3.80;;;24.00;43.20;;;;;;5106022;28;27411;-61
2021/04/25 12:55:27;;;;;;;6.18;3.47;;;24.00;44.30;;;;;;5105728;28;27946;-60
2021/04/25 12:58:22;;;;;;;5.75;3.58;;;24.10;45.50;;;;;;5105946;28;27501;-61
2021/04/25 13:01:20;;;;;;;8.85;3.38;;;24.20;45.30;;;;;;5106087;28;27461;-61
2021/04/25 13:04:27;;;;;;;10.57;3.35;;;24.40;44.50;;;;;;5105915;28;27466;-60
2021/04/25 13:07:34;;;;;;;5.32;3.60;;;24.40;41.70;;;;;;5106123;28;27876;-60
2021/04/25 13:10:50;;;;;;;9.13;4.07;;;24.50;41.20;;;;;;5105773;28;27382;-60
2021/04/25 13:14:26;;;;;;;7.45;3.95;;;24.50;39.80;;;;;;5106083;28;27398;-59
2021/04/25 13:17:57;;;;;;;9.35;3.15;;;24.40;43.20;;;;;;5106087;28;27360;-60
2021/04/25 13:21:12;;;;;;;6.03;2.90;;;24.30;43.40;;;;;;5105098;28;27366;-59
2021/04/25 13:24:28;;;;;;;6.22;2.97;;;24.20;42.00;;;;;;5104863;27;27334;-60
2021/04/25 13:27:42;;;;;;;4.20;2.65;;;24.10;42.80;;;;;;5090762;28;27418;-60
2021/04/25 13:30:59;;;;;;;5.20;3.05;;;24.20;41.30;;;;;;5105922;28;27410;-60
2021/04/25 13:34:04;;;;;;;4.47;2.80;;;24.10;42.80;;;;;;5105948;28;27977;-59
2021/04/25 13:37:08;;;;;;;5.18;2.55;;;24.00;41.00;;;;;;5105329;28;27352;-59
2021/04/25 13:40:29;;;;;;;5.60;2.83;;;24.00;40.00;;;;;;5105430;28;27418;-60
2021/04/25 13:43:35;;;;;;;4.20;2.70;;;24.00;42.50;;;;;;5105689;28;27486;-60
2021/04/25 13:47:02;;;;;;;3.75;2.67;;;24.00;40.50;;;;;;5104859;28;27860;-60
2021/04/25 13:50:30;;;;;;;7.50;2.97;;;23.90;42.20;;;;;;5105417;28;27359;-59
2021/04/25 13:53:43;;;;;;;4.63;3.05;;;23.80;44.20;;;;;;5105475;28;27364;-59
2021/04/25 13:56:54;;;;;;;5.43;2.58;;;23.70;43.50;;;;;;5105291;28;27332;-59
2021/04/25 14:00:22;;;;;;;6.00;2.38;;;23.80;43.40;;;;;;5103268;28;27470;-59
2021/04/25 14:03:46;;;;;;;4.10;2.50;;;23.80;42.60;;;;;;5104970;28;27782;-59
2021/04/25 14:06:51;;;;;;;3.95;2.20;;;23.80;40.90;;;;;;5105017;28;27534;-59
2021/04/25 14:10:22;;;;;;;3.30;2.35;;;23.90;41.10;;;;;;5104477;28;27317;-59
2021/04/25 14:13:50;;;;;;;2.38;2.17;;;23.90;39.40;;;;;;5103176;28;27457;-58
2021/04/25 14:17:38;;;;;;;4.40;2.63;;;23.80;42.50;;;;;;5103787;28;27615;-58
2021/04/25 14:20:39;;;;;;;3.65;2.45;;;23.80;40.50;;;;;;5103876;28;27418;-58
2021/04/25 14:23:46;;;;;;;5.70;2.30;;;23.70;39.90;;;;;;5104205;28;27407;-58
2021/04/25 14:27:13;;;;;;;4.03;2.30;;;23.70;41.80;;;;;;5104897;28;27454;-58
2021/04/25 14:31:06;;;;;;;4.30;2.13;;;23.70;41.80;;;;;;5101060;28;27380;-60
2021/04/25 14:34:12;;;;;;;6.13;2.35;;;23.50;42.10;;;;;;5104569;28;27469;-60
2021/04/25 14:37:38;;;;;;;2.92;2.45;;;23.50;39.80;;;;;;5101506;28;27403;-60
2021/04/25 14:40:45;;;;;;;2.88;2.28;;;23.40;42.50;;;;;;5104307;28;27460;-59
2021/04/25 14:43:48;;;;;;;4.18;2.65;;;23.40;41.40;;;;;;5101186;28;27447;-59
2021/04/25 14:46:55;;;;;;;4.00;2.60;;;23.50;40.00;;;;;;5104455;28;27327;-60
2021/04/25 14:50:08;;;;;;;4.88;2.63;;;23.50;40.60;;;;;;5104677;28;27344;-58
2021/04/25 14:53:14;;;;;;;4.93;2.60;;;23.50;40.60;;;;;;5101228;28;27377;-58
2021/04/25 14:56:28;;;;;;;3.15;2.40;;;23.50;40.70;;;;;;5104319;28;27372;-58
2021/04/25 14:59:42;;;;;;;4.68;2.60;;;23.40;39.90;;;;;;5101251;28;27400;-58
2021/04/25 15:02:42;;;;;;;4.53;2.33;;;23.40;38.10;;;;;;5102522;28;27428;-58
2021/04/25 15:05:56;;;;;;;5.18;2.33;;;23.40;39.30;;;;;;5104220;28;27424;-58
2021/04/25 15:09:24;;;;;;;3.10;2.28;;;23.30;38.90;;;;;;5103974;28;27401;-58
2021/04/25 15:12:59;;;;;;;5.10;2.25;;;23.30;38.10;;;;;;5104414;28;27402;-58
2021/04/25 15:16:30;;;;;;;3.85;1.75;;;23.30;38.90;;;;;;5104044;28;27431;-58
2021/04/25 15:20:03;;;;;;;3.10;2.17;;;23.30;38.70;;;;;;5100947;28;27422;-58
2021/04/25 15:23:23;;;;;;;2.85;2.13;;;23.30;36.20;;;;;;5103988;28;27474;-58
2021/04/25 15:26:50;;;;;;;5.38;2.55;;;23.20;37.60;;;;;;5103974;28;27427;-58
2021/04/25 15:30:23;;;;;;;6.43;2.17;;;23.30;37.20;;;;;;5103852;28;27460;-58
2021/04/25 15:33:40;;;;;;;4.88;2.08;;;23.20;38.00;;;;;;5103471;28;27446;-58
2021/04/25 15:36:51;;;;;;;4.55;2.50;;;23.20;36.60;;;;;;5102852;28;27582;-58
2021/04/25 15:40:05;;;;;;;8.43;2.70;;;23.10;37.60;;;;;;5102632;28;27589;-58
2021/04/25 15:42:58;;;;;;;4.88;2.03;;;23.00;38.90;;;;;;5103685;28;27324;-58
2021/04/25 15:46:13;;;;;;;4.22;2.88;;;23.00;39.60;;;;;;5103597;28;27348;-58
2021/04/25 15:49:27;;;;;;;5.30;2.38;;;22.90;36.90;;;;;;5105186;28;27406;-58
2021/04/25 15:52:40;;;;;;;4.15;2.33;;;22.80;36.00;;;;;;5107125;28;27418;-58
2021/04/25 15:55:41;;;;;;;4.60;2.70;;;22.80;37.40;;;;;;5107018;28;27471;-57
2021/04/25 15:58:56;;;;;;;3.88;2.17;;;22.70;37.80;;;;;;5107251;28;27359;-57
2021/04/25 16:02:29;;;;;;;4.82;3.03;;;22.60;39.30;;;;;;5106231;28;27393;-58
2021/04/25 16:05:44;;;;;;;6.60;2.17;;;22.60;38.80;;;;;;5106927;28;27368;-58
2021/04/25 16:08:58;;;;;;;3.38;2.33;;;22.50;39.80;;;;;;5106901;28;27375;-58
2021/04/25 16:12:24;;;;;;;3.70;2.22;;;22.60;36.40;;;;;;5103402;28;27828;-58
2021/04/25 16:15:29;;;;;;;3.63;2.20;;;22.60;34.70;;;;;;5106673;28;27422;-57
2021/04/25 16:18:42;;;;;;;4.07;1.98;;;22.70;35.30;;;;;;5106937;28;27340;-58
2021/04/25 16:22:10;;;;;;;6.63;2.38;;;22.70;36.10;;;;;;5103093;28;27375;-57
2021/04/25 16:25:32;;;;;;;4.03;2.42;;;22.60;36.60;;;;;;5103212;28;27309;-57
2021/04/25 16:28:25;;;;;;;3.60;2.00;;;22.50;37.00;;;;;;5106552;28;27331;-57
2021/04/25 16:31:36;;;;;;;5.13;2.38;;;22.40;34.80;;;;;;5106347;28;27430;-57
2021/04/25 16:34:49;;;;;;;4.70;2.15;;;22.30;35.40;;;;;;5104905;28;27373;-58
2021/04/25 16:38:17;;;;;;;4.72;2.08;;;22.10;36.10;;;;;;5106499;28;27439;-59
2021/04/25 16:41:51;;;;;;;7.30;2.45;;;22.00;35.60;;;;;;5106414;28;27410;-58
2021/04/25 16:45:35;;;;;;;4.28;2.22;;;21.80;38.60;;;;;;5106360;28;27407;-58
2021/04/25 16:49:03;;;;;;;3.30;2.00;;;21.70;35.60;;;;;;5105793;28;27338;-58
2021/04/25 16:52:09;;;;;;;4.43;2.22;;;21.70;36.60;;;;;;5106416;28;28054;-58